Home > Products > Valid Products > TAF

000
FTUS44 KMAF 260500
TAFMAF
TAF
KMAF 260524Z 2606/2706 21011KT P6SM FEW100=



000
FTUS44 KMAF 252300 RRA
TAFMAF
TAF
KMAF 252347Z 2600/2624 22010KT P6SM FEW100=



000
FTUS44 KMAF 252100 AAA
TAFMAF
TAF AMD
KMAF 252109Z 2521/2618 20008KT P6SM FEW100=



000
FTUS44 KMAF 252100 AAA
TAFMAF
TAF AMD
KMAF 252109Z 2521/2618 20008KT P6SM FEW100=



000
FTUS44 KMAF 251700
TAFMAF
TAF
KMAF 251722Z 2518/2618 05011KT P6SM SKC
     FM252100 25011G17KT P6SM SKC
     FM260200 20008KT P6SM SKC=



000
FTUS44 KMAF 251700
TAFMAF
TAF
KMAF 251722Z 2518/2618 05011KT P6SM SKC
     FM252100 25011G17KT P6SM SKC
     FM260200 20008KT P6SM SKC=



000
FTUS44 KMAF 251600 AAC
TAFMAF
TAF AMD
KMAF 251612Z 2516/2612 04011KT P6SM BKN100
     FM251800 26011G19KT P6SM SCT150
     FM260100 20010KT P6SM FEW250=



000
FTUS44 KMAF 251400 AAB
TAFMAF
TAF AMD
KMAF 251406Z 2514/2612 04011KT P6SM BKN100
     FM251600 26011G19KT P6SM SCT150
     FM260100 20010KT P6SM FEW250=



000
FTUS44 KMAF 251400 AAB
TAFMAF
TAF AMD
KMAF 251406Z 2514/2612 04011KT P6SM BKN100
     FM251600 26011G19KT P6SM SCT150
     FM260100 20010KT P6SM FEW250=



000
FTUS44 KMAF 251200 AAA
TAFMAF
TAF AMD
KMAF 251249Z 2513/2612 16009KT P6SM BKN100
      TEMPO 2513/2516 VRB30G45KT 6SM -TSRA BR BKN015 BKN050CB
     FM251600 26011G19KT P6SM FEW050 SCT250
     FM260100 20010KT P6SM FEW250=



000
FTUS44 KMAF 251100
TAFMAF
TAF
KMAF 251140Z 2512/2612 16009KT P6SM BKN100
      TEMPO 2512/2516 VRB20G35KT 6SM -TSRA BR SCT020 BKN050CB
     FM251600 26011G19KT P6SM FEW050 SCT250
     FM260100 20010KT P6SM FEW250=



000
FTUS44 KMAF 250900 AAA
TAFMAF
TAF AMD
KMAF 250946Z 2510/2606 16009KT P6SM SCT250
      TEMPO 2510/2512 VRB20G35KT 6SM -TSRA BR BKN050CB
     FM251700 25011G19KT P6SM FEW050 SCT250
     FM260100 21011KT P6SM FEW250=



000
FTUS44 KMAF 250500
TAFMAF
TAF
KMAF 250520Z 2506/2606 14009KT P6SM SCT250
     FM251700 25011G19KT P6SM FEW050 SCT250
     FM260100 21011KT P6SM FEW250=



000
FTUS44 KMAF 242300
TAFMAF
TAF
KMAF 242320Z 2500/2524 24013G20KT P6SM SCT250
     FM250100 17011KT P6SM SCT250
     FM251600 25011G19KT P6SM SCT050 BKN250=



000
FTUS44 KMAF 242300
TAFMAF
TAF
KMAF 242320Z 2500/2524 24013G20KT P6SM SCT250
     FM250100 17011KT P6SM SCT250
     FM251600 25011G19KT P6SM SCT050 BKN250=



000
FTUS44 KMAF 241700
TAFMAF
TAF
KMAF 241723Z 2418/2518 24013G20KT P6SM SCT250
     FM250100 19008KT P6SM SCT250
     FM250900 17010KT P6SM SCT050 BKN250=



000
FTUS44 KMAF 241100
TAFMAF
TAF
KMAF 241138Z 2412/2512 20011KT P6SM BKN250
     FM241400 24013G20KT P6SM SCT250
     FM250100 19008KT P6SM SKC=



000
FTUS44 KMAF 241100
TAFMAF
TAF
KMAF 241138Z 2412/2512 20011KT P6SM BKN250
     FM241400 24013G20KT P6SM SCT250
     FM250100 19008KT P6SM SKC=



000
FTUS44 KMAF 240800 AAB
TAFMAF
TAF AMD
KMAF 240814Z 2408/2506 14005KT P6SM SCT009
      TEMPO 2408/2412 5SM BR BKN012
     FM241200 23011KT P6SM SKC
     FM250100 19008KT P6SM SKC=



000
FTUS44 KMAF 240700 AAA
TAFMAF
TAF AMD
KMAF 240736Z 2408/2506 14005KT P6SM BKN008
      TEMPO 2408/2412 5SM BR BKN015
     FM241200 23011KT P6SM SKC
     FM250100 19008KT P6SM SKC=



000
FTUS44 KMAF 240600 RRA
TAFMAF
TAF
KMAF 240624Z 2406/2506 18011KT P6SM SCT100 BKN150
      TEMPO 2408/2412 5SM BR BKN015
     FM241200 23011KT P6SM SKC
     FM250100 19008KT P6SM SKC=



000
FTUS44 KMAF 240100 AAC
TAFMAF
TAF AMD
KMAF 240140Z 2402/2424 18011KT P6SM SCT100 BKN150
      TEMPO 2406/2410 5SM BR BKN015
     FM241000 22010KT P6SM SKC=



000
FTUS44 KMAF 240000 AAB
TAFMAF
TAF AMD
KMAF 240044Z 2401/2424 22011KT P6SM SCT040 BKN080
      TEMPO 2401/2403 VRB15G25KT 5SM -TSRA BR BKN050 OVC090CB
     FM240300 18011KT P6SM SCT030 SCT120
     FM240600 17011KT 6SM BR BKN015
     FM241000 22010KT P6SM SKC=



000
FTUS44 KMAF 240000 AAA
TAFMAF
TAF AMD
KMAF 240026Z 2400/2424 22011KT P6SM SCT040 BKN080
      TEMPO 2400/2402 5SM -TSRA BR BKN050 OVC090CB
     FM240300 18011KT P6SM SCT030 SCT120
     FM240600 17011KT 6SM BR BKN015
     FM241000 22010KT P6SM SKC=



000
FTUS44 KMAF 240000 AAA
TAFMAF
TAF AMD
KMAF 240026Z 2400/2424 22011KT P6SM SCT040 BKN080
      TEMPO 2400/2402 5SM -TSRA BR BKN050 OVC090CB
     FM240300 18011KT P6SM SCT030 SCT120
     FM240600 17011KT 6SM BR BKN015
     FM241000 22010KT P6SM SKC=



000
FTUS44 KMAF 232300
TAFMAF
TAF
KMAF 232325Z 2400/2424 18011KT P6SM SCT040 BKN080
      TEMPO 2400/2402 VRB15G30KT 1SM +TSRA BKN020 OVC050CB
     FM240300 19011KT P6SM SCT030 SCT120
     FM240600 17015KT 6SM BR BKN015
     FM241000 22010KT P6SM SKC=



000
FTUS44 KMAF 232200 AAB
TAFMAF
TAF AMD
KMAF 232213Z 2322/2418 18011KT P6SM SCT040 BKN080
      TEMPO 2322/2401 VRB20G30KT 3SM TSRA BKN020 OVC050CB
     FM240300 19011KT P6SM SCT030 BKN060
     FM240600 17015KT P6SM BKN015
     FM241400 23010KT P6SM SKC=



000
FTUS44 KMAF 232000 AAA
TAFMAF
TAF AMD
KMAF 232047Z 2321/2418 18020G29KT P6SM SCT040 BKN120
      TEMPO 2321/2324 VRB25G45KT 2SM +TSRA BKN020 OVC050CB
     FM240300 19011KT P6SM SCT030 BKN060
     FM240600 17015KT P6SM BKN015
     FM241400 23010KT P6SM SKC=



000
FTUS44 KMAF 231700
TAFMAF
TAF
KMAF 231723Z 2318/2418 18020G25KT P6SM SCT035 BKN100
      TEMPO 2320/2324 4SM TSRA OVC020CB
     FM240600 17015KT P6SM BKN015
     FM241400 23010KT P6SM SKC=



000
FTUS44 KMAF 231600 AAC
TAFMAF
TAF AMD
KMAF 231610Z 2316/2412 18016G23KT P6SM SCT035 BKN100
      TEMPO 2320/2324 4SM TSRA OVC015CB
     FM240000 16015KT P6SM BKN035 OVC100
      TEMPO 2400/2404 4SM TSRA OVC020CB=



000
FTUS44 KMAF 231400 AAB
TAFMAF
TAF AMD
KMAF 231418Z 2314/2412 16016G21KT P6SM BKN150
      TEMPO 2314/2316 P6SM BKN010
     FM231600 19016KT P6SM BKN150
      TEMPO 2316/2320 4SM TSRA OVC030CB
     FM232000 18012KT P6SM BKN050 OVC120
      TEMPO 2320/2324 4SM TSRA OVC015CB
     FM240000 16015KT P6SM BKN035 OVC100
      TEMPO 2400/2404 4SM TSRA OVC020CB=



000
FTUS44 KMAF 231300 AAA
TAFMAF
TAF AMD
KMAF 231314Z 2313/2412 16016G21KT P6SM SCT019 BKN200
      TEMPO 2315/2316 3SM -TSRA OVC015CB
     FM231600 19016KT P6SM BKN025 OVC100
      TEMPO 2316/2320 4SM TSRA OVC025CB
     FM232000 18012KT P6SM BKN050 OVC120
      TEMPO 2320/2324 4SM TSRA OVC015CB
     FM240000 16015KT P6SM BKN035 OVC100
      TEMPO 2400/2404 4SM TSRA OVC020CB=



000
FTUS44 KMAF 231100
TAFMAF
TAF
KMAF 231131Z 2312/2412 15010KT P6SM SCT019 BKN200
      TEMPO 2314/2316 3SM -TSRA OVC015CB
     FM231600 19016KT P6SM BKN025 OVC100
      TEMPO 2316/2320 4SM TSRA OVC025CB
     FM232000 18012KT P6SM BKN050 OVC120
      TEMPO 2320/2324 4SM TSRA OVC015CB
     FM240000 16015KT P6SM BKN035 OVC100
      TEMPO 2400/2404 4SM TSRA OVC020CB=



000
FTUS44 KMAF 231100
TAFMAF
TAF
KMAF 231131Z 2312/2412 15010KT P6SM SCT019 BKN200
      TEMPO 2314/2316 3SM -TSRA OVC015CB
     FM231600 19016KT P6SM BKN025 OVC100
      TEMPO 2316/2320 4SM TSRA OVC025CB
     FM232000 18012KT P6SM BKN050 OVC120
      TEMPO 2320/2324 4SM TSRA OVC015CB
     FM240000 16015KT P6SM BKN035 OVC100
      TEMPO 2400/2404 4SM TSRA OVC020CB=



000
FTUS44 KMAF 231000 AAB
TAFMAF
TAF AMD
KMAF 231043Z 2311/2406 14011KT P6SM SCT019 BKN250
      TEMPO 2313/2316 3SM TSRA OVC015CB
     FM231600 19016KT P6SM -SHRA BKN020 OVC100
      TEMPO 2316/2320 4SM TSRA OVC015CB
     FM232000 18012KT P6SM BKN030 OVC100
      TEMPO 2320/2324 4SM TSRA OVC015CB=



000
FTUS44 KMAF 231000 AAB
TAFMAF
TAF AMD
KMAF 231043Z 2311/2406 14011KT P6SM SCT019 BKN250
      TEMPO 2313/2316 3SM TSRA OVC015CB
     FM231600 19016KT P6SM -SHRA BKN020 OVC100
      TEMPO 2316/2320 4SM TSRA OVC015CB
     FM232000 18012KT P6SM BKN030 OVC100
      TEMPO 2320/2324 4SM TSRA OVC015CB=



000
FTUS44 KMAF 230800 AAA
TAFMAF
TAF AMD
KMAF 230820Z 2308/2406 14017KT P6SM BKN021
      TEMPO 2308/2312 4SM TSRA OVC012CB
     FM231200 17018KT P6SM -SHRA OVC020
      TEMPO 2312/2316 3SM TSRA OVC010CB
     FM231600 19016KT P6SM -SHRA BKN020 OVC100
      TEMPO 2316/2320 4SM TSRA OVC015CB
     FM232000 18012KT P6SM BKN030 OVC100
      TEMPO 2320/2324 4SM TSRA OVC015CB=



    US Dept of Commerce
    National Oceanic and Atmospheric Administration
    National Weather Service
    1325 East West Highway
    Silver Spring, MD 20910
    Page Author: NWS Internet Services Team
Disclaimer
Information Quality
Credits
Glossary
Privacy Policy
Freedom of Information Act (FOIA)
About Us
Career Opportunities